sensor_id;sensor_type;location;lat;lon;timestamp;pressure;altitude;pressure_sealevel;temperature;humidity
42411;BME280;28056;51.112;0.984;2023-03-04T00:01:25;102028.54;;;9.82;46.64
42411;BME280;28056;51.112;0.984;2023-03-04T00:03:52;102030.14;;;10.21;43.39
42411;BME280;28056;51.112;0.984;2023-03-04T00:06:20;102029.02;;;9.78;46.11
42411;BME280;28056;51.112;0.984;2023-03-04T00:08:47;102028.90;;;10.41;45.99
42411;BME280;28056;51.112;0.984;2023-03-04T00:11:14;102034.32;;;9.30;45.36
42411;BME280;28056;51.112;0.984;2023-03-04T00:13:42;102034.45;;;9.76;45.36
42411;BME280;28056;51.112;0.984;2023-03-04T00:16:10;102036.27;;;9.80;42.36
42411;BME280;28056;51.112;0.984;2023-03-04T00:18:37;102033.47;;;9.60;44.23
42411;BME280;28056;51.112;0.984;2023-03-04T00:21:05;102027.58;;;9.45;45.21
42411;BME280;28056;51.112;0.984;2023-03-04T00:23:33;102031.48;;;9.20;44.77
42411;BME280;28056;51.112;0.984;2023-03-04T00:26:01;102025.96;;;9.27;44.78
42411;BME280;28056;51.112;0.984;2023-03-04T00:28:29;102025.33;;;9.17;43.48
42411;BME280;28056;51.112;0.984;2023-03-04T00:30:56;102024.87;;;8.84;42.60
42411;BME280;28056;51.112;0.984;2023-03-04T00:33:23;102026.14;;;8.49;44.35
42411;BME280;28056;51.112;0.984;2023-03-04T00:35:50;102022.46;;;8.10;43.74
42411;BME280;28056;51.112;0.984;2023-03-04T00:38:18;102019.81;;;8.33;42.78
42411;BME280;28056;51.112;0.984;2023-03-04T00:40:45;102013.99;;;8.36;43.83
42411;BME280;28056;51.112;0.984;2023-03-04T00:43:12;102011.72;;;8.24;44.72
42411;BME280;28056;51.112;0.984;2023-03-04T00:45:39;102011.35;;;8.99;45.38
42411;BME280;28056;51.112;0.984;2023-03-04T00:48:07;102011.76;;;9.39;43.31
42411;BME280;28056;51.112;0.984;2023-03-04T00:50:34;102010.24;;;9.45;44.70
42411;BME280;28056;51.112;0.984;2023-03-04T00:53:01;102013.50;;;9.87;44.69
42411;BME280;28056;51.112;0.984;2023-03-04T00:55:29;102014.10;;;10.10;43.64
42411;BME280;28056;51.112;0.984;2023-03-04T00:57:57;102010.55;;;10.23;42.70
42411;BME280;28056;51.112;0.984;2023-03-04T01:00:24;102010.39;;;9.79;44.02
42411;BME280;28056;51.112;0.984;2023-03-04T01:04:48;102007.50;;;9.67;42.91
42411;BME280;28056;51.112;0.984;2023-03-04T01:07:15;102003.15;;;9.96;42.73
42411;BME280;28056;51.112;0.984;2023-03-04T01:09:42;102000.82;;;10.08;41.97
42411;BME280;28056;51.112;0.984;2023-03-04T01:12:09;101996.93;;;10.09;43.05
42411;BME280;28056;51.112;0.984;2023-03-04T01:14:36;101995.54;;;10.27;41.39
42411;BME280;28056;51.112;0.984;2023-03-04T01:17:04;101989.66;;;10.20;43.75
42411;BME280;28056;51.112;0.984;2023-03-04T01:19:31;101993.42;;;9.89;41.70
42411;BME280;28056;51.112;0.984;2023-03-04T01:21:58;101990.69;;;10.21;42.13
42411;BME280;28056;51.112;0.984;2023-03-04T01:24:25;101990.54;;;9.78;43.19
42411;BME280;28056;51.112;0.984;2023-03-04T01:26:52;101987.61;;;10.02;41.17
42411;BME280;28056;51.112;0.984;2023-03-04T01:29:19;101984.24;;;9.70;41.91
42411;BME280;28056;51.112;0.984;2023-03-04T01:31:47;101984.45;;;9.40;42.60
42411;BME280;28056;51.112;0.984;2023-03-04T01:34:14;101984.37;;;9.19;43.61
42411;BME280;28056;51.112;0.984;2023-03-04T01:36:41;101978.59;;;8.87;43.72
42411;BME280;28056;51.112;0.984;2023-03-04T01:39:08;101977.66;;;8.68;45.56
42411;BME280;28056;51.112;0.984;2023-03-04T01:41:35;101980.36;;;8.95;44.58
42411;BME280;28056;51.112;0.984;2023-03-04T01:44:02;101972.76;;;8.87;44.35
42411;BME280;28056;51.112;0.984;2023-03-04T01:46:30;101966.50;;;8.83;44.71
42411;BME280;28056;51.112;0.984;2023-03-04T01:48:58;101968.26;;;8.66;44.91
42411;BME280;28056;51.112;0.984;2023-03-04T01:51:26;101969.59;;;8.99;44.80
42411;BME280;28056;51.112;0.984;2023-03-04T01:53:54;101968.19;;;9.12;44.17
42411;BME280;28056;51.112;0.984;2023-03-04T01:56:25;101969.67;;;9.43;43.22
42411;BME280;28056;51.112;0.984;2023-03-04T01:59:14;101966.13;;;9.46;43.59
42411;BME280;28056;51.112;0.984;2023-03-04T02:01:44;101967.45;;;8.67;44.26
42411;BME280;28056;51.112;0.984;2023-03-04T02:04:13;101963.75;;;9.16;44.00
42411;BME280;28056;51.112;0.984;2023-03-04T02:06:42;101965.86;;;9.30;43.85
42411;BME280;28056;51.112;0.984;2023-03-04T02:09:10;101967.87;;;9.87;44.13
42411;BME280;28056;51.112;0.984;2023-03-04T02:11:38;101965.88;;;10.24;41.82
42411;BME280;28056;51.112;0.984;2023-03-04T02:14:06;101965.11;;;9.62;43.04
42411;BME280;28056;51.112;0.984;2023-03-04T02:16:34;101960.93;;;9.74;44.43
42411;BME280;28056;51.112;0.984;2023-03-04T02:19:04;101959.93;;;10.20;42.07
42411;BME280;28056;51.112;0.984;2023-03-04T02:21:33;101959.72;;;10.10;42.62
42411;BME280;28056;51.112;0.984;2023-03-04T02:24:08;101958.67;;;10.29;44.96
42411;BME280;28056;51.112;0.984;2023-03-04T02:26:38;101956.91;;;9.59;43.93
42411;BME280;28056;51.112;0.984;2023-03-04T02:29:05;101951.83;;;8.88;42.59
42411;BME280;28056;51.112;0.984;2023-03-04T02:31:34;101949.36;;;9.03;42.30
42411;BME280;28056;51.112;0.984;2023-03-04T02:34:04;101950.15;;;8.05;43.74
42411;BME280;28056;51.112;0.984;2023-03-04T02:36:33;101948.13;;;8.78;44.57
42411;BME280;28056;51.112;0.984;2023-03-04T02:39:03;101951.81;;;9.19;41.71
42411;BME280;28056;51.112;0.984;2023-03-04T02:41:31;101951.24;;;8.79;45.73
42411;BME280;28056;51.112;0.984;2023-03-04T02:43:58;101950.25;;;8.91;44.36
42411;BME280;28056;51.112;0.984;2023-03-04T02:46:25;101947.28;;;8.49;43.54
42411;BME280;28056;51.112;0.984;2023-03-04T02:48:53;101950.25;;;8.96;45.94
42411;BME280;28056;51.112;0.984;2023-03-04T02:51:20;101951.90;;;9.27;44.01
42411;BME280;28056;51.112;0.984;2023-03-04T02:53:48;101947.27;;;9.13;44.01
42411;BME280;28056;51.112;0.984;2023-03-04T02:56:15;101948.25;;;9.16;44.69
42411;BME280;28056;51.112;0.984;2023-03-04T02:58:42;101943.86;;;9.28;45.67
42411;BME280;28056;51.112;0.984;2023-03-04T03:01:09;101940.57;;;9.03;46.26
42411;BME280;28056;51.112;0.984;2023-03-04T03:03:36;101937.51;;;9.08;45.53
42411;BME280;28056;51.112;0.984;2023-03-04T03:06:03;101936.11;;;9.11;43.91
42411;BME280;28056;51.112;0.984;2023-03-04T03:08:31;101935.91;;;9.21;44.77
42411;BME280;28056;51.112;0.984;2023-03-04T03:10:59;101937.31;;;9.43;46.65
42411;BME280;28056;51.112;0.984;2023-03-04T03:13:26;101935.14;;;9.37;44.21
42411;BME280;28056;51.112;0.984;2023-03-04T03:15:53;101931.63;;;9.43;44.75
42411;BME280;28056;51.112;0.984;2023-03-04T03:18:20;101932.59;;;9.47;43.79
42411;BME280;28056;51.112;0.984;2023-03-04T03:20:47;101934.98;;;9.52;44.18
42411;BME280;28056;51.112;0.984;2023-03-04T03:23:15;101931.99;;;9.24;45.44
42411;BME280;28056;51.112;0.984;2023-03-04T03:25:42;101931.99;;;7.63;47.38
42411;BME280;28056;51.112;0.984;2023-03-04T03:28:10;101929.03;;;8.56;47.12
42411;BME280;28056;51.112;0.984;2023-03-04T03:30:37;101930.77;;;8.94;43.71
42411;BME280;28056;51.112;0.984;2023-03-04T03:33:04;101927.98;;;9.09;45.38
42411;BME280;28056;51.112;0.984;2023-03-04T03:35:31;101931.26;;;9.34;47.46
42411;BME280;28056;51.112;0.984;2023-03-04T03:37:59;101928.05;;;8.98;45.96
42411;BME280;28056;51.112;0.984;2023-03-04T03:40:26;101928.32;;;9.49;43.63
42411;BME280;28056;51.112;0.984;2023-03-04T03:42:53;101926.01;;;9.48;43.84
42411;BME280;28056;51.112;0.984;2023-03-04T03:45:20;101927.58;;;8.83;46.97
42411;BME280;28056;51.112;0.984;2023-03-04T03:47:47;101926.39;;;9.42;47.32
42411;BME280;28056;51.112;0.984;2023-03-04T03:50:15;101923.39;;;9.46;45.44
42411;BME280;28056;51.112;0.984;2023-03-04T03:52:42;101922.53;;;9.18;43.16
42411;BME280;28056;51.112;0.984;2023-03-04T03:55:10;101924.53;;;9.54;45.71
42411;BME280;28056;51.112;0.984;2023-03-04T03:57:37;101921.76;;;9.64;46.09
42411;BME280;28056;51.112;0.984;2023-03-04T04:00:07;101920.49;;;9.38;43.60
42411;BME280;28056;51.112;0.984;2023-03-04T04:02:35;101920.77;;;9.65;45.39
42411;BME280;28056;51.112;0.984;2023-03-04T04:05:04;101918.59;;;9.57;46.60
42411;BME280;28056;51.112;0.984;2023-03-04T04:07:32;101921.98;;;9.61;47.11
42411;BME280;28056;51.112;0.984;2023-03-04T04:10:00;101918.94;;;9.47;45.20
42411;BME280;28056;51.112;0.984;2023-03-04T04:12:27;101918.97;;;8.71;44.37
42411;BME280;28056;51.112;0.984;2023-03-04T04:14:55;101918.93;;;9.00;45.89
42411;BME280;28056;51.112;0.984;2023-03-04T04:17:22;101917.60;;;9.04;44.90
42411;BME280;28056;51.112;0.984;2023-03-04T04:19:49;101915.90;;;9.00;43.65
42411;BME280;28056;51.112;0.984;2023-03-04T04:22:18;101916.45;;;7.96;45.86
42411;BME280;28056;51.112;0.984;2023-03-04T04:24:47;101918.25;;;8.53;46.45
42411;BME280;28056;51.112;0.984;2023-03-04T04:27:14;101920.43;;;8.86;46.53
42411;BME280;28056;51.112;0.984;2023-03-04T04:29:42;101921.14;;;9.20;42.84
42411;BME280;28056;51.112;0.984;2023-03-04T04:32:10;101921.00;;;9.14;43.99
42411;BME280;28056;51.112;0.984;2023-03-04T04:34:37;101920.52;;;9.15;46.99
42411;BME280;28056;51.112;0.984;2023-03-04T04:37:04;101924.44;;;9.36;47.98
42411;BME280;28056;51.112;0.984;2023-03-04T04:39:32;101925.78;;;9.49;46.22
42411;BME280;28056;51.112;0.984;2023-03-04T04:41:59;101925.75;;;9.60;46.17
42411;BME280;28056;51.112;0.984;2023-03-04T04:44:26;101930.40;;;9.17;46.31
42411;BME280;28056;51.112;0.984;2023-03-04T04:46:54;101932.18;;;8.45;46.82
42411;BME280;28056;51.112;0.984;2023-03-04T04:49:20;101932.90;;;8.59;46.19
42411;BME280;28056;51.112;0.984;2023-03-04T04:51:48;101937.85;;;8.95;46.88
42411;BME280;28056;51.112;0.984;2023-03-04T04:54:15;101937.41;;;9.24;46.89
42411;BME280;28056;51.112;0.984;2023-03-04T04:56:42;101936.09;;;9.47;46.00
42411;BME280;28056;51.112;0.984;2023-03-04T04:59:09;101939.43;;;8.81;47.96
42411;BME280;28056;51.112;0.984;2023-03-04T05:01:36;101939.42;;;9.13;46.50
42411;BME280;28056;51.112;0.984;2023-03-04T05:04:04;101941.61;;;9.12;47.16
42411;BME280;28056;51.112;0.984;2023-03-04T05:06:31;101942.99;;;9.24;46.83
42411;BME280;28056;51.112;0.984;2023-03-04T05:08:58;101942.40;;;9.94;46.73
42411;BME280;28056;51.112;0.984;2023-03-04T05:11:25;101941.82;;;9.58;47.51
42411;BME280;28056;51.112;0.984;2023-03-04T05:13:52;101939.63;;;9.39;46.24
42411;BME280;28056;51.112;0.984;2023-03-04T05:16:19;101939.73;;;9.80;47.04
42411;BME280;28056;51.112;0.984;2023-03-04T05:18:46;101940.05;;;10.32;45.57
42411;BME280;28056;51.112;0.984;2023-03-04T05:21:14;101943.78;;;9.14;46.46
42411;BME280;28056;51.112;0.984;2023-03-04T05:23:43;101945.93;;;7.84;47.78
42411;BME280;28056;51.112;0.984;2023-03-04T05:26:13;101945.26;;;7.25;49.25
42411;BME280;28056;51.112;0.984;2023-03-04T05:28:40;101943.20;;;8.05;49.52
42411;BME280;28056;51.112;0.984;2023-03-04T05:31:08;101941.76;;;8.83;47.48
42411;BME280;28056;51.112;0.984;2023-03-04T05:33:36;101942.98;;;8.90;48.15
42411;BME280;28056;51.112;0.984;2023-03-04T05:36:05;101940.94;;;9.01;45.31
42411;BME280;28056;51.112;0.984;2023-03-04T05:38:33;101941.70;;;9.29;48.05
42411;BME280;28056;51.112;0.984;2023-03-04T05:41:02;101940.45;;;9.54;46.68
42411;BME280;28056;51.112;0.984;2023-03-04T05:43:30;101939.94;;;9.15;46.60
42411;BME280;28056;51.112;0.984;2023-03-04T05:45:58;101941.98;;;9.77;47.49
42411;BME280;28056;51.112;0.984;2023-03-04T05:48:25;101940.97;;;9.95;47.52
42411;BME280;28056;51.112;0.984;2023-03-04T05:50:54;101943.30;;;9.46;48.68
42411;BME280;28056;51.112;0.984;2023-03-04T05:53:22;101945.85;;;9.90;46.97
42411;BME280;28056;51.112;0.984;2023-03-04T05:55:50;101944.00;;;8.31;47.59
42411;BME280;28056;51.112;0.984;2023-03-04T05:58:18;101946.64;;;8.45;49.53
42411;BME280;28056;51.112;0.984;2023-03-04T06:00:45;101951.85;;;8.89;47.37
42411;BME280;28056;51.112;0.984;2023-03-04T06:03:15;101953.28;;;9.32;47.74
42411;BME280;28056;51.112;0.984;2023-03-04T06:05:43;101954.13;;;9.00;47.41
42411;BME280;28056;51.112;0.984;2023-03-04T06:08:11;101954.39;;;9.24;47.00
42411;BME280;28056;51.112;0.984;2023-03-04T06:10:39;101956.17;;;9.63;51.04
42411;BME280;28056;51.112;0.984;2023-03-04T06:13:08;101949.52;;;8.67;47.97
42411;BME280;28056;51.112;0.984;2023-03-04T06:15:35;101957.35;;;9.35;51.30
42411;BME280;28056;51.112;0.984;2023-03-04T06:18:03;101953.34;;;8.26;46.73
42411;BME280;28056;51.112;0.984;2023-03-04T06:20:30;101956.00;;;6.52;49.56
42411;BME280;28056;51.112;0.984;2023-03-04T06:22:58;101958.32;;;5.96;50.11
42411;BME280;28056;51.112;0.984;2023-03-04T06:25:26;101958.71;;;6.44;50.40
42411;BME280;28056;51.112;0.984;2023-03-04T06:27:53;101964.22;;;6.72;49.77
42411;BME280;28056;51.112;0.984;2023-03-04T06:30:21;101966.58;;;6.27;50.47
42411;BME280;28056;51.112;0.984;2023-03-04T06:32:54;101971.62;;;5.30;52.80
42411;BME280;28056;51.112;0.984;2023-03-04T06:35:21;101966.34;;;6.42;50.25
42411;BME280;28056;51.112;0.984;2023-03-04T06:37:49;101969.35;;;6.77;50.37
42411;BME280;28056;51.112;0.984;2023-03-04T06:40:16;101971.79;;;5.68;52.00
42411;BME280;28056;51.112;0.984;2023-03-04T06:42:44;101972.37;;;5.24;51.39
42411;BME280;28056;51.112;0.984;2023-03-04T06:45:11;101980.12;;;5.42;52.14
42411;BME280;28056;51.112;0.984;2023-03-04T06:47:38;101979.09;;;6.28;50.50
42411;BME280;28056;51.112;0.984;2023-03-04T06:50:07;101979.00;;;6.38;50.42
42411;BME280;28056;51.112;0.984;2023-03-04T06:52:34;101979.68;;;6.78;49.60
42411;BME280;28056;51.112;0.984;2023-03-04T06:55:16;101980.55;;;6.73;49.12
42411;BME280;28056;51.112;0.984;2023-03-04T06:57:44;101982.88;;;6.52;49.30
42411;BME280;28056;51.112;0.984;2023-03-04T07:00:12;101983.67;;;6.38;48.79
42411;BME280;28056;51.112;0.984;2023-03-04T07:02:40;101982.69;;;6.24;49.73
42411;BME280;28056;51.112;0.984;2023-03-04T07:05:08;101992.93;;;4.97;52.85
42411;BME280;28056;51.112;0.984;2023-03-04T07:07:36;101990.93;;;4.16;54.29
42411;BME280;28056;51.112;0.984;2023-03-04T07:10:04;101996.44;;;5.23;53.68
42411;BME280;28056;51.112;0.984;2023-03-04T07:12:32;101997.17;;;4.55;53.84
42411;BME280;28056;51.112;0.984;2023-03-04T07:14:59;101995.82;;;4.53;55.70
42411;BME280;28056;51.112;0.984;2023-03-04T07:17:26;101995.63;;;4.09;55.85
42411;BME280;28056;51.112;0.984;2023-03-04T07:19:53;101999.47;;;4.91;55.29
42411;BME280;28056;51.112;0.984;2023-03-04T07:22:20;101998.35;;;5.93;53.23
42411;BME280;28056;51.112;0.984;2023-03-04T07:24:47;101999.26;;;5.06;54.78
42411;BME280;28056;51.112;0.984;2023-03-04T07:27:14;101999.88;;;5.35;54.67
42411;BME280;28056;51.112;0.984;2023-03-04T07:29:41;102004.37;;;3.80;57.84
42411;BME280;28056;51.112;0.984;2023-03-04T07:32:10;102009.43;;;3.97;58.59
42411;BME280;28056;51.112;0.984;2023-03-04T07:34:37;102014.93;;;3.16;60.68
42411;BME280;28056;51.112;0.984;2023-03-04T07:37:04;102015.58;;;4.88;57.91
42411;BME280;28056;51.112;0.984;2023-03-04T07:39:32;102016.81;;;4.10;58.38
42411;BME280;28056;51.112;0.984;2023-03-04T07:41:59;102015.19;;;4.13;57.88
42411;BME280;28056;51.112;0.984;2023-03-04T07:44:26;102016.06;;;5.55;55.39
42411;BME280;28056;51.112;0.984;2023-03-04T07:46:53;102020.58;;;5.80;53.91
42411;BME280;28056;51.112;0.984;2023-03-04T07:49:20;102023.96;;;6.22;53.14
42411;BME280;28056;51.112;0.984;2023-03-04T07:51:47;102022.62;;;5.86;53.00
42411;BME280;28056;51.112;0.984;2023-03-04T07:54:14;102023.27;;;5.83;53.51
42411;BME280;28056;51.112;0.984;2023-03-04T07:56:43;102021.22;;;5.82;52.98
42411;BME280;28056;51.112;0.984;2023-03-04T07:59:10;102016.39;;;6.47;51.42
42411;BME280;28056;51.112;0.984;2023-03-04T08:01:37;102012.35;;;6.90;50.67
42411;BME280;28056;51.112;0.984;2023-03-04T08:04:06;102018.13;;;6.73;50.44
42411;BME280;28056;51.112;0.984;2023-03-04T08:06:33;102014.02;;;7.14;50.05
42411;BME280;28056;51.112;0.984;2023-03-04T08:09:03;102016.31;;;7.47;49.75
42411;BME280;28056;51.112;0.984;2023-03-04T08:11:31;102016.16;;;7.15;49.58
42411;BME280;28056;51.112;0.984;2023-03-04T08:13:59;102018.97;;;7.36;49.01
42411;BME280;28056;51.112;0.984;2023-03-04T08:16:26;102022.90;;;6.42;49.71
42411;BME280;28056;51.112;0.984;2023-03-04T08:18:56;102024.37;;;6.98;50.29
42411;BME280;28056;51.112;0.984;2023-03-04T08:21:25;102025.76;;;7.08;50.44
42411;BME280;28056;51.112;0.984;2023-03-04T08:23:53;102026.46;;;6.48;50.27
42411;BME280;28056;51.112;0.984;2023-03-04T08:26:24;102025.37;;;7.31;49.38
42411;BME280;28056;51.112;0.984;2023-03-04T08:28:52;102023.83;;;7.26;49.31
42411;BME280;28056;51.112;0.984;2023-03-04T08:31:20;102027.22;;;7.46;49.18
42411;BME280;28056;51.112;0.984;2023-03-04T08:33:48;102027.89;;;6.82;50.57
42411;BME280;28056;51.112;0.984;2023-03-04T08:36:16;102031.30;;;6.28;50.74
42411;BME280;28056;51.112;0.984;2023-03-04T08:38:43;102040.38;;;6.02;51.18
42411;BME280;28056;51.112;0.984;2023-03-04T08:41:11;102039.40;;;3.94;55.66
42411;BME280;28056;51.112;0.984;2023-03-04T08:43:38;102040.07;;;4.23;56.82
42411;BME280;28056;51.112;0.984;2023-03-04T08:46:05;102042.51;;;3.76;58.64
42411;BME280;28056;51.112;0.984;2023-03-04T08:48:33;102043.91;;;3.60;60.08
42411;BME280;28056;51.112;0.984;2023-03-04T08:51:01;102043.15;;;2.64;63.68
42411;BME280;28056;51.112;0.984;2023-03-04T08:53:33;102043.03;;;3.21;63.09
42411;BME280;28056;51.112;0.984;2023-03-04T08:56:00;102042.23;;;4.36;60.03
42411;BME280;28056;51.112;0.984;2023-03-04T08:58:27;102039.05;;;4.68;58.80
42411;BME280;28056;51.112;0.984;2023-03-04T09:00:55;102037.82;;;5.42;56.18
42411;BME280;28056;51.112;0.984;2023-03-04T09:03:25;102035.10;;;6.07;54.78
42411;BME280;28056;51.112;0.984;2023-03-04T09:05:54;102033.46;;;5.95;54.81
42411;BME280;28056;51.112;0.984;2023-03-04T09:08:22;102022.49;;;6.46;53.36
42411;BME280;28056;51.112;0.984;2023-03-04T09:10:51;102022.43;;;6.86;52.28
42411;BME280;28056;51.112;0.984;2023-03-04T09:13:20;102025.88;;;6.91;51.12
42411;BME280;28056;51.112;0.984;2023-03-04T09:15:49;102023.32;;;6.63;51.78
42411;BME280;28056;51.112;0.984;2023-03-04T09:18:17;102025.99;;;6.50;53.60
42411;BME280;28056;51.112;0.984;2023-03-04T09:20:45;102027.20;;;5.77;55.94
42411;BME280;28056;51.112;0.984;2023-03-04T09:23:13;102025.32;;;6.48;54.73
42411;BME280;28056;51.112;0.984;2023-03-04T09:25:41;102023.82;;;7.13;53.91
42411;BME280;28056;51.112;0.984;2023-03-04T09:28:10;102021.75;;;6.43;53.31
42411;BME280;28056;51.112;0.984;2023-03-04T09:30:38;102023.09;;;7.29;52.26
42411;BME280;28056;51.112;0.984;2023-03-04T09:33:06;102021.40;;;7.35;50.80
42411;BME280;28056;51.112;0.984;2023-03-04T09:35:33;102020.69;;;7.27;51.07
42411;BME280;28056;51.112;0.984;2023-03-04T09:38:00;102020.24;;;7.24;50.82
42411;BME280;28056;51.112;0.984;2023-03-04T09:40:32;102018.71;;;7.12;51.56
42411;BME280;28056;51.112;0.984;2023-03-04T09:43:06;102021.40;;;6.67;52.66
42411;BME280;28056;51.112;0.984;2023-03-04T09:45:42;102023.79;;;6.44;53.74
42411;BME280;28056;51.112;0.984;2023-03-04T09:48:15;102024.28;;;7.02;53.37
42411;BME280;28056;51.112;0.984;2023-03-04T09:50:51;102029.74;;;4.86;60.17
42411;BME280;28056;51.112;0.984;2023-03-04T09:53:30;102028.46;;;2.85;67.29
42411;BME280;28056;51.112;0.984;2023-03-04T09:56:02;102030.46;;;5.43;61.97
42411;BME280;28056;51.112;0.984;2023-03-04T09:58:41;102022.38;;;4.42;66.17
42411;BME280;28056;51.112;0.984;2023-03-04T10:01:19;102021.64;;;3.66;66.76
42411;BME280;28056;51.112;0.984;2023-03-04T10:03:52;102013.83;;;3.38;67.20
42411;BME280;28056;51.112;0.984;2023-03-04T10:06:21;102008.46;;;3.53;67.32
42411;BME280;28056;51.112;0.984;2023-03-04T10:08:53;102013.12;;;5.17;65.38
42411;BME280;28056;51.112;0.984;2023-03-04T10:11:26;102010.38;;;6.51;60.12
42411;BME280;28056;51.112;0.984;2023-03-04T10:14:05;102009.92;;;6.58;59.14
42411;BME280;28056;51.112;0.984;2023-03-04T10:16:42;102014.92;;;6.19;56.99
42411;BME280;28056;51.112;0.984;2023-03-04T10:19:34;102015.64;;;5.57;57.32
42411;BME280;28056;51.112;0.984;2023-03-04T10:22:15;102016.45;;;4.92;62.18
42411;BME280;28056;51.112;0.984;2023-03-04T10:24:46;102018.37;;;5.02;62.04
42411;BME280;28056;51.112;0.984;2023-03-04T10:27:17;102013.80;;;6.59;57.96
42411;BME280;28056;51.112;0.984;2023-03-04T10:29:45;102013.83;;;7.33;55.52
42411;BME280;28056;51.112;0.984;2023-03-04T10:32:15;102016.06;;;4.37;62.30
42411;BME280;28056;51.112;0.984;2023-03-04T10:34:43;102022.46;;;5.98;60.82
42411;BME280;28056;51.112;0.984;2023-03-04T10:37:10;102016.22;;;7.43;55.81
42411;BME280;28056;51.112;0.984;2023-03-04T10:39:40;102018.39;;;7.48;54.31
42411;BME280;28056;51.112;0.984;2023-03-04T10:42:25;102021.14;;;5.18;59.67
42411;BME280;28056;51.112;0.984;2023-03-04T10:44:56;102015.42;;;7.61;54.64
42411;BME280;28056;51.112;0.984;2023-03-04T10:47:26;102018.54;;;7.12;53.83
42411;BME280;28056;51.112;0.984;2023-03-04T10:49:56;102017.25;;;7.26;55.20
42411;BME280;28056;51.112;0.984;2023-03-04T10:52:28;102018.06;;;7.60;53.85
42411;BME280;28056;51.112;0.984;2023-03-04T10:54:57;102015.44;;;7.54;53.24
42411;BME280;28056;51.112;0.984;2023-03-04T10:57:32;102022.92;;;5.97;57.34
42411;BME280;28056;51.112;0.984;2023-03-04T11:00:22;102019.45;;;5.25;59.16
42411;BME280;28056;51.112;0.984;2023-03-04T11:02:51;102018.87;;;4.51;61.58
42411;BME280;28056;51.112;0.984;2023-03-04T11:05:24;102014.96;;;6.38;58.01
42411;BME280;28056;51.112;0.984;2023-03-04T11:07:53;102018.29;;;5.09;59.83
42411;BME280;28056;51.112;0.984;2023-03-04T11:10:23;102011.06;;;6.65;57.66
42411;BME280;28056;51.112;0.984;2023-03-04T11:12:58;102011.33;;;6.90;57.21
42411;BME280;28056;51.112;0.984;2023-03-04T11:15:28;102009.50;;;7.61;54.82
42411;BME280;28056;51.112;0.984;2023-03-04T11:17:59;102009.68;;;6.63;56.33
42411;BME280;28056;51.112;0.984;2023-03-04T11:20:31;102012.36;;;4.89;60.90
42411;BME280;28056;51.112;0.984;2023-03-04T11:23:04;102010.12;;;4.18;63.42
42411;BME280;28056;51.112;0.984;2023-03-04T11:25:34;102007.76;;;4.64;62.58
42411;BME280;28056;51.112;0.984;2023-03-04T11:28:08;102007.28;;;5.81;60.12
42411;BME280;28056;51.112;0.984;2023-03-04T11:30:43;102003.47;;;4.75;61.63
42411;BME280;28056;51.112;0.984;2023-03-04T11:33:17;102005.30;;;5.17;62.13
42411;BME280;28056;51.112;0.984;2023-03-04T11:35:56;102004.93;;;5.65;60.41
42411;BME280;28056;51.112;0.984;2023-03-04T11:38:31;101999.55;;;6.19;60.01
42411;BME280;28056;51.112;0.984;2023-03-04T11:41:05;101996.03;;;5.90;58.54
42411;BME280;28056;51.112;0.984;2023-03-04T11:43:38;101988.92;;;7.19;54.82
42411;BME280;28056;51.112;0.984;2023-03-04T11:46:51;101988.83;;;8.29;58.75
42411;BME280;28056;51.112;0.984;2023-03-04T11:50:40;101974.13;;;8.51;53.68
42411;BME280;28056;51.112;0.984;2023-03-04T11:53:26;101974.58;;;9.15;49.50
42411;BME280;28056;51.112;0.984;2023-03-04T11:56:09;101973.87;;;9.82;48.60
42411;BME280;28056;51.112;0.984;2023-03-04T11:58:51;101972.78;;;9.13;47.47
42411;BME280;28056;51.112;0.984;2023-03-04T12:01:30;101970.70;;;8.62;47.35
42411;BME280;28056;51.112;0.984;2023-03-04T12:04:11;101959.98;;;10.01;46.75
42411;BME280;28056;51.112;0.984;2023-03-04T12:06:51;101955.35;;;9.16;47.54
42411;BME280;28056;51.112;0.984;2023-03-04T12:09:32;101951.63;;;9.45;47.79
42411;BME280;28056;51.112;0.984;2023-03-04T12:12:20;101947.48;;;9.45;46.04
42411;BME280;28056;51.112;0.984;2023-03-04T12:14:58;101941.43;;;9.03;45.67
42411;BME280;28056;51.112;0.984;2023-03-04T12:17:43;101940.95;;;8.17;47.93
42411;BME280;28056;51.112;0.984;2023-03-04T12:20:26;101942.97;;;9.06;47.38
42411;BME280;28056;51.112;0.984;2023-03-04T12:23:07;101939.32;;;9.04;45.64
42411;BME280;28056;51.112;0.984;2023-03-04T12:25:41;101934.83;;;7.38;52.56
42411;BME280;28056;51.112;0.984;2023-03-04T12:28:24;101928.79;;;8.56;51.84
42411;BME280;28056;51.112;0.984;2023-03-04T12:31:03;101928.32;;;9.65;48.28
42411;BME280;28056;51.112;0.984;2023-03-04T12:33:43;101922.20;;;10.47;43.65
42411;BME280;28056;51.112;0.984;2023-03-04T12:36:22;101923.63;;;11.06;42.52
42411;BME280;28056;51.112;0.984;2023-03-04T12:38:58;101929.18;;;8.82;44.50
42411;BME280;28056;51.112;0.984;2023-03-04T12:41:38;101926.81;;;10.14;43.87
42411;BME280;28056;51.112;0.984;2023-03-04T12:44:14;101923.86;;;9.05;44.48
42411;BME280;28056;51.112;0.984;2023-03-04T12:47:01;101919.98;;;9.06;44.88
42411;BME280;28056;51.112;0.984;2023-03-04T12:49:40;101914.76;;;8.38;47.07
42411;BME280;28056;51.112;0.984;2023-03-04T12:52:17;101913.11;;;8.22;46.67
42411;BME280;28056;51.112;0.984;2023-03-04T12:54:49;101906.03;;;8.02;47.35
42411;BME280;28056;51.112;0.984;2023-03-04T12:57:19;101907.56;;;9.12;45.62
42411;BME280;28056;51.112;0.984;2023-03-04T12:59:53;101900.19;;;8.20;46.03
42411;BME280;28056;51.112;0.984;2023-03-04T13:02:50;101893.59;;;7.36;47.14
42411;BME280;28056;51.112;0.984;2023-03-04T13:05:34;101887.72;;;4.87;51.73
42411;BME280;28056;51.112;0.984;2023-03-04T13:08:10;101891.86;;;4.14;59.12
42411;BME280;28056;51.112;0.984;2023-03-04T13:10:41;101888.91;;;3.95;61.25
42411;BME280;28056;51.112;0.984;2023-03-04T13:13:35;101890.78;;;6.21;57.76
42411;BME280;28056;51.112;0.984;2023-03-04T13:16:04;101897.35;;;5.05;58.86
42411;BME280;28056;51.112;0.984;2023-03-04T13:18:34;101884.90;;;5.38;58.98